sensor_id;sensor_type;location;lat;lon;timestamp;pressure;altitude;pressure_sealevel;temperature;humidity
73267;BME280;61495;53.400;7.608;2023-07-28T00:01:34;100174.63;;;17.47;100.00
73267;BME280;61495;53.400;7.608;2023-07-28T00:03:59;100171.38;;;17.45;100.00
73267;BME280;61495;53.400;7.608;2023-07-28T00:06:24;100167.03;;;17.44;100.00
73267;BME280;61495;53.400;7.608;2023-07-28T00:08:50;100175.16;;;17.44;100.00
73267;BME280;61495;53.400;7.608;2023-07-28T00:11:16;100160.53;;;17.45;100.00
73267;BME280;61495;53.400;7.608;2023-07-28T00:13:42;100162.19;;;17.46;100.00
73267;BME280;61495;53.400;7.608;2023-07-28T00:16:08;100162.19;;;17.46;100.00
73267;BME280;61495;53.400;7.608;2023-07-28T00:18:34;100164.31;;;17.44;100.00
73267;BME280;61495;53.400;7.608;2023-07-28T00:20:59;100164.31;;;17.44;100.00
73267;BME280;61495;53.400;7.608;2023-07-28T00:23:25;100162.19;;;17.46;100.00
73267;BME280;61495;53.400;7.608;2023-07-28T00:25:51;100168.13;;;17.43;100.00
73267;BME280;61495;53.400;7.608;2023-07-28T00:28:16;100174.34;;;17.43;100.00
73267;BME280;61495;53.400;7.608;2023-07-28T00:30:42;100176.78;;;17.45;100.00
73267;BME280;61495;53.400;7.608;2023-07-28T00:33:07;100182.22;;;17.45;100.00
73267;BME280;61495;53.400;7.608;2023-07-28T00:35:33;100175.97;;;17.44;100.00
73267;BME280;61495;53.400;7.608;2023-07-28T00:37:58;100175.16;;;17.44;100.00
73267;BME280;61495;53.400;7.608;2023-07-28T00:40:24;100176.78;;;17.45;100.00
73267;BME280;61495;53.400;7.608;2023-07-28T00:42:50;100160.53;;;17.45;100.00
73267;BME280;61495;53.400;7.608;2023-07-28T00:45:15;100167.59;;;17.46;100.00
73267;BME280;61495;53.400;7.608;2023-07-28T00:47:41;100173.81;;;17.46;100.00
73267;BME280;61495;53.400;7.608;2023-07-28T00:50:08;100173.00;;;17.46;100.00
73267;BME280;61495;53.400;7.608;2023-07-28T00:52:35;100176.78;;;17.45;100.00
73267;BME280;61495;53.400;7.608;2023-07-28T00:55:01;100174.09;;;17.45;100.00
73267;BME280;61495;53.400;7.608;2023-07-28T00:57:26;100174.63;;;17.47;100.00
73267;BME280;61495;53.400;7.608;2023-07-28T00:59:52;100171.38;;;17.45;100.00
73267;BME280;61495;53.400;7.608;2023-07-28T01:02:19;100170.31;;;17.46;100.00
73267;BME280;61495;53.400;7.608;2023-07-28T01:04:44;100173.00;;;17.46;100.00
73267;BME280;61495;53.400;7.608;2023-07-28T01:07:17;100173.56;;;17.48;100.00
73267;BME280;61495;53.400;7.608;2023-07-28T01:09:57;100173.00;;;17.46;100.00
73267;BME280;61495;53.400;7.608;2023-07-28T01:12:26;100171.66;;;17.48;100.00
73267;BME280;61495;53.400;7.608;2023-07-28T01:14:51;100165.97;;;17.45;100.00
73267;BME280;61495;53.400;7.608;2023-07-28T01:17:17;100165.97;;;17.45;100.00
73267;BME280;61495;53.400;7.608;2023-07-28T01:19:43;100170.84;;;17.43;100.00
73267;BME280;61495;53.400;7.608;2023-07-28T01:27:51;100172.44;;;17.44;100.00
73267;BME280;61495;53.400;7.608;2023-07-28T01:30:17;100174.09;;;17.45;100.00
73267;BME280;61495;53.400;7.608;2023-07-28T01:32:42;100181.38;;;17.44;100.00
73267;BME280;61495;53.400;7.608;2023-07-28T01:35:08;100180.56;;;17.44;100.00
73267;BME280;61495;53.400;7.608;2023-07-28T01:37:33;100182.22;;;17.45;100.00
73267;BME280;61495;53.400;7.608;2023-07-28T01:39:59;100180.56;;;17.44;100.00
73267;BME280;61495;53.400;7.608;2023-07-28T01:42:25;100183.56;;;17.42;100.00
73267;BME280;61495;53.400;7.608;2023-07-28T01:44:50;100182.47;;;17.43;100.00
73267;BME280;61495;53.400;7.608;2023-07-28T01:47:16;100182.22;;;17.45;100.00
73267;BME280;61495;53.400;7.608;2023-07-28T01:49:41;100177.63;;;17.45;100.00
73267;BME280;61495;53.400;7.608;2023-07-28T01:52:07;100181.38;;;17.44;100.00
73267;BME280;61495;53.400;7.608;2023-07-28T01:54:32;100174.34;;;17.43;100.00
73267;BME280;61495;53.400;7.608;2023-07-28T01:56:57;100176.78;;;17.45;100.00
73267;BME280;61495;53.400;7.608;2023-07-28T01:59:23;100177.88;;;17.44;100.00
73267;BME280;61495;53.400;7.608;2023-07-28T02:01:48;100182.22;;;17.45;100.00
73267;BME280;61495;53.400;7.608;2023-07-28T02:04:14;100184.91;;;17.45;100.00
73267;BME280;61495;53.400;7.608;2023-07-28T02:06:40;100186.00;;;17.44;100.00
73267;BME280;61495;53.400;7.608;2023-07-28T02:09:06;100188.16;;;17.42;100.00
73267;BME280;61495;53.400;7.608;2023-07-28T02:11:31;100184.38;;;17.43;100.00
73267;BME280;61495;53.400;7.608;2023-07-28T02:13:57;100181.94;;;17.41;100.00
73267;BME280;61495;53.400;7.608;2023-07-28T02:16:23;100180.56;;;17.44;100.00
73267;BME280;61495;53.400;7.608;2023-07-28T02:18:49;100182.47;;;17.43;100.00
73267;BME280;61495;53.400;7.608;2023-07-28T02:21:15;100188.69;;;17.44;100.00
73267;BME280;61495;53.400;7.608;2023-07-28T02:23:41;100181.66;;;17.43;100.00
73267;BME280;61495;53.400;7.608;2023-07-28T02:26:06;100190.59;;;17.43;100.00
73267;BME280;61495;53.400;7.608;2023-07-28T02:28:31;100188.16;;;17.42;100.00
73267;BME280;61495;53.400;7.608;2023-07-28T02:30:57;100190.34;;;17.40;100.00
73267;BME280;61495;53.400;7.608;2023-07-28T02:33:22;100193.03;;;17.40;100.00
73267;BME280;61495;53.400;7.608;2023-07-28T02:35:48;100198.47;;;17.40;100.00
73267;BME280;61495;53.400;7.608;2023-07-28T02:38:13;100205.47;;;17.41;100.00
73267;BME280;61495;53.400;7.608;2023-07-28T02:40:38;100204.94;;;17.39;100.00
73267;BME280;61495;53.400;7.608;2023-07-28T02:43:04;100201.16;;;17.40;100.00
73267;BME280;61495;53.400;7.608;2023-07-28T02:45:30;100210.38;;;17.39;100.00
73267;BME280;61495;53.400;7.608;2023-07-28T02:47:55;100205.75;;;17.39;100.00
73267;BME280;61495;53.400;7.608;2023-07-28T02:50:20;100209.28;;;17.40;100.00
73267;BME280;61495;53.400;7.608;2023-07-28T02:52:46;100209.53;;;17.38;100.00
73267;BME280;61495;53.400;7.608;2023-07-28T02:55:11;100214.13;;;17.38;100.00
73267;BME280;61495;53.400;7.608;2023-07-28T02:57:37;100216.59;;;17.39;100.00
73267;BME280;61495;53.400;7.608;2023-07-28T03:00:02;100215.78;;;17.39;100.00
73267;BME280;61495;53.400;7.608;2023-07-28T03:02:30;100219.03;;;17.41;100.00
73267;BME280;61495;53.400;7.608;2023-07-28T03:04:56;100210.06;;;17.40;100.00
73267;BME280;61495;53.400;7.608;2023-07-28T03:07:21;100209.28;;;17.40;100.00
73267;BME280;61495;53.400;7.608;2023-07-28T03:09:46;100213.06;;;17.39;100.00
73267;BME280;61495;53.400;7.608;2023-07-28T03:12:12;100217.41;;;17.40;100.00
73267;BME280;61495;53.400;7.608;2023-07-28T03:14:37;100212.00;;;17.40;100.00
73267;BME280;61495;53.400;7.608;2023-07-28T03:17:03;100210.38;;;17.39;100.00
73267;BME280;61495;53.400;7.608;2023-07-28T03:19:29;100217.41;;;17.40;100.00
73267;BME280;61495;53.400;7.608;2023-07-28T03:21:54;100213.59;;;17.41;100.00
73267;BME280;61495;53.400;7.608;2023-07-28T03:24:20;100221.72;;;17.41;100.00
73267;BME280;61495;53.400;7.608;2023-07-28T03:26:45;100218.19;;;17.40;100.00
73267;BME280;61495;53.400;7.608;2023-07-28T03:29:11;100229.84;;;17.41;100.00
73267;BME280;61495;53.400;7.608;2023-07-28T03:31:36;100220.91;;;17.40;100.00
73267;BME280;61495;53.400;7.608;2023-07-28T03:34:02;100224.44;;;17.41;100.00
73267;BME280;61495;53.400;7.608;2023-07-28T03:36:28;100224.44;;;17.41;100.00
73267;BME280;61495;53.400;7.608;2023-07-28T03:38:53;100224.44;;;17.41;100.00
73267;BME280;61495;53.400;7.608;2023-07-28T03:41:19;100220.13;;;17.40;100.00
73267;BME280;61495;53.400;7.608;2023-07-28T03:43:45;100217.41;;;17.40;100.00
73267;BME280;61495;53.400;7.608;2023-07-28T03:46:10;100227.16;;;17.41;100.00
73267;BME280;61495;53.400;7.608;2023-07-28T03:48:36;100226.09;;;17.42;100.00
73267;BME280;61495;53.400;7.608;2023-07-28T03:51:01;100228.25;;;17.40;100.00
73267;BME280;61495;53.400;7.608;2023-07-28T03:53:27;100231.50;;;17.42;100.00
73267;BME280;61495;53.400;7.608;2023-07-28T03:55:52;100224.44;;;17.41;100.00
73267;BME280;61495;53.400;7.608;2023-07-28T03:58:18;100237.72;;;17.42;100.00
73267;BME280;61495;53.400;7.608;2023-07-28T04:00:44;100229.59;;;17.42;100.00
73267;BME280;61495;53.400;7.608;2023-07-28T04:03:09;100228.78;;;17.42;100.00
73267;BME280;61495;53.400;7.608;2023-07-28T04:05:36;100230.44;;;17.43;100.00
73267;BME280;61495;53.400;7.608;2023-07-28T04:08:02;100230.44;;;17.43;100.00
73267;BME280;61495;53.400;7.608;2023-07-28T04:10:27;100235.03;;;17.42;100.00
73267;BME280;61495;53.400;7.608;2023-07-28T04:12:52;100235.03;;;17.42;100.00
73267;BME280;61495;53.400;7.608;2023-07-28T04:15:18;100237.72;;;17.42;100.00
73267;BME280;61495;53.400;7.608;2023-07-28T04:17:43;100239.63;;;17.42;100.00
73267;BME280;61495;53.400;7.608;2023-07-28T04:20:09;100246.69;;;17.43;100.00
73267;BME280;61495;53.400;7.608;2023-07-28T04:22:34;100243.16;;;17.42;100.00
73267;BME280;61495;53.400;7.608;2023-07-28T04:24:59;100246.41;;;17.44;100.00
73267;BME280;61495;53.400;7.608;2023-07-28T04:27:25;100240.16;;;17.44;100.00
73267;BME280;61495;53.400;7.608;2023-07-28T04:29:50;100240.97;;;17.44;100.00
73267;BME280;61495;53.400;7.608;2023-07-28T04:32:15;100243.16;;;17.42;100.00
73267;BME280;61495;53.400;7.608;2023-07-28T04:34:41;100252.09;;;17.43;100.00
73267;BME280;61495;53.400;7.608;2023-07-28T04:37:06;100246.69;;;17.43;100.00
73267;BME280;61495;53.400;7.608;2023-07-28T04:39:32;100245.56;;;17.44;100.00
73267;BME280;61495;53.400;7.608;2023-07-28T04:41:57;100249.91;;;17.45;100.00
73267;BME280;61495;53.400;7.608;2023-07-28T04:44:22;100263.47;;;17.45;100.00
73267;BME280;61495;53.400;7.608;2023-07-28T04:46:48;100257.22;;;17.44;100.00
73267;BME280;61495;53.400;7.608;2023-07-28T04:49:13;100258.06;;;17.45;100.00
73267;BME280;61495;53.400;7.608;2023-07-28T04:51:39;100265.09;;;17.46;100.00
73267;BME280;61495;53.400;7.608;2023-07-28T04:54:04;100263.47;;;17.45;100.00
73267;BME280;61495;53.400;7.608;2023-07-28T04:56:29;100263.47;;;17.45;100.00
73267;BME280;61495;53.400;7.608;2023-07-28T04:58:55;100269.69;;;17.45;100.00
73267;BME280;61495;53.400;7.608;2023-07-28T05:01:20;100265.09;;;17.46;100.00
73267;BME280;61495;53.400;7.608;2023-07-28T05:03:45;100261.56;;;17.45;100.00
73267;BME280;61495;53.400;7.608;2023-07-28T05:06:11;100258.06;;;17.45;100.00
73267;BME280;61495;53.400;7.608;2023-07-28T05:08:36;100262.94;;;17.48;100.00
73267;BME280;61495;53.400;7.608;2023-07-28T05:11:02;100259.69;;;17.46;100.00
73267;BME280;61495;53.400;7.608;2023-07-28T05:13:27;100266.72;;;17.47;100.00
73267;BME280;61495;53.400;7.608;2023-07-28T05:15:52;100267.81;;;17.46;100.00
73267;BME280;61495;53.400;7.608;2023-07-28T05:18:18;100267.81;;;17.46;100.00
73267;BME280;61495;53.400;7.608;2023-07-28T05:20:43;100275.94;;;17.46;100.00
73267;BME280;61495;53.400;7.608;2023-07-28T05:23:09;100275.41;;;17.49;100.00
73267;BME280;61495;53.400;7.608;2023-07-28T05:25:34;100273.78;;;17.48;100.00
73267;BME280;61495;53.400;7.608;2023-07-28T05:27:59;100276.47;;;17.48;100.00
73267;BME280;61495;53.400;7.608;2023-07-28T05:30:25;100273.78;;;17.48;100.00
73267;BME280;61495;53.400;7.608;2023-07-28T05:32:50;100277.53;;;17.47;100.00
73267;BME280;61495;53.400;7.608;2023-07-28T05:35:15;100277.53;;;17.47;100.00
73267;BME280;61495;53.400;7.608;2023-07-28T05:37:41;100277.00;;;17.50;100.00
73267;BME280;61495;53.400;7.608;2023-07-28T05:40:07;100272.69;;;17.49;100.00
73267;BME280;61495;53.400;7.608;2023-07-28T05:42:33;100282.72;;;17.48;100.00
73267;BME280;61495;53.400;7.608;2023-07-28T05:44:59;100278.13;;;17.49;100.00
73267;BME280;61495;53.400;7.608;2023-07-28T05:47:24;100291.66;;;17.49;100.00
73267;BME280;61495;53.400;7.608;2023-07-28T05:49:51;100287.03;;;17.49;100.00
73267;BME280;61495;53.400;7.608;2023-07-28T05:52:19;100285.16;;;17.50;100.00
73267;BME280;61495;53.400;7.608;2023-07-28T05:54:44;100287.84;;;17.50;100.00
73267;BME280;61495;53.400;7.608;2023-07-28T05:57:09;100287.59;;;17.51;100.00
73267;BME280;61495;53.400;7.608;2023-07-28T05:59:35;100291.13;;;17.52;100.00
73267;BME280;61495;53.400;7.608;2023-07-28T06:02:00;100284.63;;;17.53;100.00
73267;BME280;61495;53.400;7.608;2023-07-28T06:04:26;100292.75;;;17.53;100.00
73267;BME280;61495;53.400;7.608;2023-07-28T06:06:51;100287.94;;;17.55;100.00
73267;BME280;61495;53.400;7.608;2023-07-28T06:09:17;100287.63;;;17.56;100.00
73267;BME280;61495;53.400;7.608;2023-07-28T06:11:42;100290.06;;;17.58;100.00
73267;BME280;61495;53.400;7.608;2023-07-28T06:14:08;100297.13;;;17.59;100.00
73267;BME280;61495;53.400;7.608;2023-07-28T06:16:33;100299.31;;;17.62;100.00
73267;BME280;61495;53.400;7.608;2023-07-28T06:18:59;100295.78;;;17.61;100.00
73267;BME280;61495;53.400;7.608;2023-07-28T06:21:24;100298.22;;;17.63;100.00
73267;BME280;61495;53.400;7.608;2023-07-28T06:23:49;100301.22;;;17.66;100.00
73267;BME280;61495;53.400;7.608;2023-07-28T06:26:16;100306.66;;;17.66;100.00
73267;BME280;61495;53.400;7.608;2023-07-28T06:28:41;100305.31;;;17.69;100.00
73267;BME280;61495;53.400;7.608;2023-07-28T06:31:07;100308.00;;;17.69;100.00
73267;BME280;61495;53.400;7.608;2023-07-28T06:33:33;100305.84;;;17.71;100.00
73267;BME280;61495;53.400;7.608;2023-07-28T06:35:59;100305.84;;;17.76;100.00
73267;BME280;61495;53.400;7.608;2023-07-28T06:38:24;100313.44;;;17.79;100.00
73267;BME280;61495;53.400;7.608;2023-07-28T06:40:49;100312.66;;;17.84;100.00
73267;BME280;61495;53.400;7.608;2023-07-28T06:43:15;100316.19;;;17.89;100.00
73267;BME280;61495;53.400;7.608;2023-07-28T06:45:41;100324.06;;;17.96;100.00
73267;BME280;61495;53.400;7.608;2023-07-28T06:48:06;100328.13;;;17.98;100.00
73267;BME280;61495;53.400;7.608;2023-07-28T06:50:32;100329.78;;;18.04;100.00
73267;BME280;61495;53.400;7.608;2023-07-28T06:52:57;100336.56;;;18.07;100.00
73267;BME280;61495;53.400;7.608;2023-07-28T06:55:23;100330.31;;;18.11;100.00
73267;BME280;61495;53.400;7.608;2023-07-28T06:57:48;100340.09;;;18.12;100.00
73267;BME280;61495;53.400;7.608;2023-07-28T07:00:15;100340.38;;;18.16;100.00
73267;BME280;61495;53.400;7.608;2023-07-28T07:02:40;100340.13;;;18.22;100.00
73267;BME280;61495;53.400;7.608;2023-07-28T07:05:06;100341.19;;;18.26;100.00
73267;BME280;61495;53.400;7.608;2023-07-28T07:07:32;100350.97;;;18.32;100.00
73267;BME280;61495;53.400;7.608;2023-07-28T07:09:58;100359.66;;;18.35;100.00
73267;BME280;61495;53.400;7.608;2023-07-28T07:12:23;100353.94;;;18.36;100.00
73267;BME280;61495;53.400;7.608;2023-07-28T07:14:49;100358.00;;;18.39;100.00
73267;BME280;61495;53.400;7.608;2023-07-28T07:17:14;100360.75;;;18.44;100.00
73267;BME280;61495;53.400;7.608;2023-07-28T07:19:40;100362.09;;;18.46;100.00
73267;BME280;61495;53.400;7.608;2023-07-28T07:22:05;100366.22;;;18.49;100.00
73267;BME280;61495;53.400;7.608;2023-07-28T07:24:31;100367.31;;;18.53;100.00
73267;BME280;61495;53.400;7.608;2023-07-28T07:26:57;100380.59;;;18.54;100.00
73267;BME280;61495;53.400;7.608;2023-07-28T07:29:22;100383.84;;;18.56;100.00
73267;BME280;61495;53.400;7.608;2023-07-28T07:31:48;100378.97;;;18.58;100.00
73267;BME280;61495;53.400;7.608;2023-07-28T07:34:14;100386.84;;;18.60;100.00
73267;BME280;61495;53.400;7.608;2023-07-28T07:36:39;100393.63;;;18.62;100.00
73267;BME280;61495;53.400;7.608;2023-07-28T07:39:05;100388.47;;;18.66;100.00
73267;BME280;61495;53.400;7.608;2023-07-28T07:41:30;100393.88;;;18.66;100.00
73267;BME280;61495;53.400;7.608;2023-07-28T07:43:56;100395.81;;;18.70;100.00
73267;BME280;61495;53.400;7.608;2023-07-28T07:46:22;100398.78;;;18.74;100.00
73267;BME280;61495;53.400;7.608;2023-07-28T07:48:47;100396.59;;;18.81;100.00
73267;BME280;61495;53.400;7.608;2023-07-28T07:51:15;100403.13;;;18.85;100.00
73267;BME280;61495;53.400;7.608;2023-07-28T07:53:40;100397.94;;;18.88;100.00
73267;BME280;61495;53.400;7.608;2023-07-28T07:56:06;100410.19;;;18.96;100.00
73267;BME280;61495;53.400;7.608;2023-07-28T07:58:33;100409.09;;;19.02;100.00
73267;BME280;61495;53.400;7.608;2023-07-28T08:00:58;100414.50;;;19.12;100.00
73267;BME280;61495;53.400;7.608;2023-07-28T08:03:24;100411.78;;;19.22;100.00
73267;BME280;61495;53.400;7.608;2023-07-28T08:05:50;100404.16;;;19.39;100.00
73267;BME280;61495;53.400;7.608;2023-07-28T08:08:16;100417.22;;;19.48;100.00
73267;BME280;61495;53.400;7.608;2023-07-28T08:10:42;100418.81;;;19.54;100.00
73267;BME280;61495;53.400;7.608;2023-07-28T08:13:08;100422.59;;;19.58;100.00
73267;BME280;61495;53.400;7.608;2023-07-28T08:15:34;100424.22;;;19.59;100.00
73267;BME280;61495;53.400;7.608;2023-07-28T08:17:59;100419.63;;;19.59;100.00
73267;BME280;61495;53.400;7.608;2023-07-28T08:20:24;100427.47;;;19.61;100.00
73267;BME280;61495;53.400;7.608;2023-07-28T08:22:50;100428.28;;;19.66;100.00
73267;BME280;61495;53.400;7.608;2023-07-28T08:25:16;100441.59;;;19.68;100.00
73267;BME280;61495;53.400;7.608;2023-07-28T08:27:41;100440.50;;;19.69;100.00
73267;BME280;61495;53.400;7.608;2023-07-28T08:30:07;100442.13;;;19.70;100.00
73267;BME280;61495;53.400;7.608;2023-07-28T08:32:33;100456.28;;;19.67;100.00
73267;BME280;61495;53.400;7.608;2023-07-28T08:34:59;100451.91;;;19.66;100.00
73267;BME280;61495;53.400;7.608;2023-07-28T08:37:24;100452.47;;;19.68;100.00
73267;BME280;61495;53.400;7.608;2023-07-28T08:39:49;100457.88;;;19.78;100.00
73267;BME280;61495;53.400;7.608;2023-07-28T08:42:15;100462.75;;;19.86;100.00
73267;BME280;61495;53.400;7.608;2023-07-28T08:44:40;100457.00;;;19.92;100.00
73267;BME280;61495;53.400;7.608;2023-07-28T08:47:06;100459.47;;;19.94;100.00
73267;BME280;61495;53.400;7.608;2023-07-28T08:49:33;100463.25;;;19.98;100.00
73267;BME280;61495;53.400;7.608;2023-07-28T08:52:01;100463.22;;;20.03;100.00
73267;BME280;61495;53.400;7.608;2023-07-28T08:54:32;100474.63;;;20.10;100.00
73267;BME280;61495;53.400;7.608;2023-07-28T08:57:27;100472.44;;;20.12;100.00
73267;BME280;61495;53.400;7.608;2023-07-28T09:00:24;100469.44;;;20.14;100.00
73267;BME280;61495;53.400;7.608;2023-07-28T09:02:50;100472.38;;;20.22;100.00
73267;BME280;61495;53.400;7.608;2023-07-28T09:05:18;100472.38;;;20.32;100.00
73267;BME280;61495;53.400;7.608;2023-07-28T09:07:44;100484.91;;;20.33;100.00
73267;BME280;61495;53.400;7.608;2023-07-28T09:10:10;100482.69;;;20.35;100.00
73267;BME280;61495;53.400;7.608;2023-07-28T09:12:45;100480.78;;;20.36;100.00
73267;BME280;61495;53.400;7.608;2023-07-28T09:15:11;100487.88;;;20.37;100.00
73267;BME280;61495;53.400;7.608;2023-07-28T09:17:41;100491.97;;;20.29;100.00
73267;BME280;61495;53.400;7.608;2023-07-28T09:20:07;100499.63;;;20.27;100.00
73267;BME280;61495;53.400;7.608;2023-07-28T09:22:37;100502.03;;;20.29;100.00
73267;BME280;61495;53.400;7.608;2023-07-28T09:25:14;100507.22;;;20.30;100.00
73267;BME280;61495;53.400;7.608;2023-07-28T09:27:41;100508.28;;;20.34;100.00
73267;BME280;61495;53.400;7.608;2023-07-28T09:30:14;100499.84;;;20.36;100.00
73267;BME280;61495;53.400;7.608;2023-07-28T09:32:46;100506.38;;;20.40;100.00
73267;BME280;61495;53.400;7.608;2023-07-28T09:35:13;100493.53;;;20.45;100.00
73267;BME280;61495;53.400;7.608;2023-07-28T09:37:46;100503.28;;;20.57;100.00
73267;BME280;61495;53.400;7.608;2023-07-28T09:40:15;100500.78;;;20.65;100.00
73267;BME280;61495;53.400;7.608;2023-07-28T09:42:45;100504.56;;;20.69;100.00
73267;BME280;61495;53.400;7.608;2023-07-28T09:45:18;100506.19;;;20.70;100.00
73267;BME280;61495;53.400;7.608;2023-07-28T09:47:45;100510.56;;;20.66;99.96
73267;BME280;61495;53.400;7.608;2023-07-28T09:50:14;100507.81;;;20.71;100.00
73267;BME280;61495;53.400;7.608;2023-07-28T09:52:46;100517.28;;;20.84;100.00
73267;BME280;61495;53.400;7.608;2023-07-28T09:55:12;100517.44;;;20.97;100.00
73267;BME280;61495;53.400;7.608;2023-07-28T09:57:51;100514.41;;;21.04;99.88
73267;BME280;61495;53.400;7.608;2023-07-28T10:00:18;100524.72;;;21.12;99.31
73267;BME280;61495;53.400;7.608;2023-07-28T10:02:45;100526.81;;;21.20;99.07
73267;BME280;61495;53.400;7.608;2023-07-28T10:05:11;100532.78;;;21.27;97.80
73267;BME280;61495;53.400;7.608;2023-07-28T10:07:42;100534.66;;;21.32;97.31
73267;BME280;61495;53.400;7.608;2023-07-28T10:10:12;100538.19;;;21.32;94.65
73267;BME280;61495;53.400;7.608;2023-07-28T10:12:52;100541.97;;;21.36;94.38
73267;BME280;61495;53.400;7.608;2023-07-28T10:15:20;100538.59;;;21.49;95.61
73267;BME280;61495;53.400;7.608;2023-07-28T10:17:54;100545.63;;;21.55;93.86
73267;BME280;61495;53.400;7.608;2023-07-28T10:20:39;100543.94;;;21.59;93.43
73267;BME280;61495;53.400;7.608;2023-07-28T10:23:25;100536.91;;;21.53;92.15
73267;BME280;61495;53.400;7.608;2023-07-28T10:25:58;100553.28;;;21.53;91.42
73267;BME280;61495;53.400;7.608;2023-07-28T10:28:30;100548.38;;;21.50;92.09
73267;BME280;61495;53.400;7.608;2023-07-28T10:31:01;100548.06;;;21.57;93.10
73267;BME280;61495;53.400;7.608;2023-07-28T10:33:28;100556.16;;;21.67;93.09
73267;BME280;61495;53.400;7.608;2023-07-28T10:35:57;100552.16;;;21.83;94.42
73267;BME280;61495;53.400;7.608;2023-07-28T10:38:31;100552.41;;;21.87;93.48
73267;BME280;61495;53.400;7.608;2023-07-28T10:41:17;100559.81;;;22.10;94.87
73267;BME280;61495;53.400;7.608;2023-07-28T10:43:45;100553.38;;;22.25;94.89
73267;BME280;61495;53.400;7.608;2023-07-28T10:46:15;100554.53;;;22.42;94.36
73267;BME280;61495;53.400;7.608;2023-07-28T10:48:42;100548.38;;;22.55;93.36
73267;BME280;61495;53.400;7.608;2023-07-28T10:51:09;100554.28;;;22.62;92.01
73267;BME280;61495;53.400;7.608;2023-07-28T10:53:35;100553.16;;;22.63;89.49
73267;BME280;61495;53.400;7.608;2023-07-28T10:56:02;100561.53;;;22.72;89.78
73267;BME280;61495;53.400;7.608;2023-07-28T10:58:28;100560.75;;;22.72;88.02
73267;BME280;61495;53.400;7.608;2023-07-28T11:00:54;100561.69;;;22.81;88.75
73267;BME280;61495;53.400;7.608;2023-07-28T11:03:20;100558.97;;;22.81;87.33
73267;BME280;61495;53.400;7.608;2023-07-28T11:05:48;100560.09;;;22.80;87.03
73267;BME280;61495;53.400;7.608;2023-07-28T11:08:13;100564.38;;;22.86;86.92
73267;BME280;61495;53.400;7.608;2023-07-28T11:10:39;100565.84;;;22.97;87.78
73267;BME280;61495;53.400;7.608;2023-07-28T11:13:06;100561.25;;;23.11;86.93
73267;BME280;61495;53.400;7.608;2023-07-28T11:15:31;100561.69;;;23.37;89.43
73267;BME280;61495;53.400;7.608;2023-07-28T11:17:58;100564.59;;;23.45;86.50
73267;BME280;61495;53.400;7.608;2023-07-28T11:20:27;100570.13;;;23.40;84.10
73267;BME280;61495;53.400;7.608;2023-07-28T11:22:59;100568.75;;;23.43;85.02
73267;BME280;61495;53.400;7.608;2023-07-28T11:25:27;100567.72;;;23.52;85.29
73267;BME280;61495;53.400;7.608;2023-07-28T11:27:53;100573.19;;;23.52;83.55
73267;BME280;61495;53.400;7.608;2023-07-28T11:30:21;100572.59;;;23.55;83.64
73267;BME280;61495;53.400;7.608;2023-07-28T11:32:49;100573.03;;;23.62;84.27
73267;BME280;61495;53.400;7.608;2023-07-28T11:35:16;100579.94;;;23.60;83.71
73267;BME280;61495;53.400;7.608;2023-07-28T11:37:44;100589.38;;;23.67;84.13
73267;BME280;61495;53.400;7.608;2023-07-28T11:40:11;100590.91;;;23.73;82.63
73267;BME280;61495;53.400;7.608;2023-07-28T11:42:43;100581.38;;;23.85;82.79
73267;BME280;61495;53.400;7.608;2023-07-28T11:45:10;100591.34;;;23.81;82.74
73267;BME280;61495;53.400;7.608;2023-07-28T11:47:37;100588.88;;;23.79;83.76
73267;BME280;61495;53.400;7.608;2023-07-28T11:50:03;100597.03;;;23.84;82.13
73267;BME280;61495;53.400;7.608;2023-07-28T11:52:33;100595.00;;;23.90;82.16
73267;BME280;61495;53.400;7.608;2023-07-28T11:55:00;100591.44;;;23.89;82.15
73267;BME280;61495;53.400;7.608;2023-07-28T11:57:27;100591.25;;;23.86;80.36
73267;BME280;61495;53.400;7.608;2023-07-28T11:59:53;100589.75;;;23.93;81.00
73267;BME280;61495;53.400;7.608;2023-07-28T12:02:27;100594.09;;;23.94;81.22
73267;BME280;61495;53.400;7.608;2023-07-28T12:04:53;100593.00;;;24.09;81.89
73267;BME280;61495;53.400;7.608;2023-07-28T12:07:27;100591.31;;;24.13;81.16
73267;BME280;61495;53.400;7.608;2023-07-28T12:09:53;100592.13;;;24.27;82.25
73267;BME280;61495;53.400;7.608;2023-07-28T12:12:29;100595.28;;;24.34;81.03
73267;BME280;61495;53.400;7.608;2023-07-28T12:14:58;100596.59;;;24.50;82.42
73267;BME280;61495;53.400;7.608;2023-07-28T12:17:30;100595.47;;;24.65;81.20
73267;BME280;61495;53.400;7.608;2023-07-28T12:20:07;100598.72;;;24.80;80.99
73267;BME280;61495;53.400;7.608;2023-07-28T12:22:37;100595.88;;;24.85;81.97
73267;BME280;61495;53.400;7.608;2023-07-28T12:25:03;100604.38;;;24.98;79.86
73267;BME280;61495;53.400;7.608;2023-07-28T12:27:29;100607.63;;;25.00;79.22
73267;BME280;61495;53.400;7.608;2023-07-28T12:29:55;100608.41;;;25.14;78.49
73267;BME280;61495;53.400;7.608;2023-07-28T12:32:26;100612.44;;;25.30;78.46
73267;BME280;61495;53.400;7.608;2023-07-28T12:34:51;100610.03;;;25.37;80.78
73267;BME280;61495;53.400;7.608;2023-07-28T12:37:18;100603.22;;;25.48;80.22
73267;BME280;61495;53.400;7.608;2023-07-28T12:39:44;100594.28;;;25.42;76.44
73267;BME280;61495;53.400;7.608;2023-07-28T12:42:10;100598.78;;;25.61;79.75
73267;BME280;61495;53.400;7.608;2023-07-28T12:44:40;100610.44;;;25.66;77.11
73267;BME280;61495;53.400;7.608;2023-07-28T12:47:06;100604.34;;;25.69;75.29